Time;durP1;ratioP1;P1;durP2;ratioP2;P2;SDS_P1;SDS_P2;PMS_P1;PMS_P2;Temp;Humidity;BMP_temperature;BMP_pressure;BME280_temperature;BME280_humidity;BME280_pressure;Samples;Min_cycle;Max_cycle;Signal;HPM_P1;HPM_P2
2023/03/30 00:01:01;;;;;;;;;;;13.40;99.90;;;;;;5056057;28;19905;-76
2023/03/30 00:03:26;;;;;;;;;;;13.40;99.90;;;;;;5038259;28;20264;-76
2023/03/30 00:05:55;;;;;;;;;;;13.50;99.90;;;;;;5055851;28;19913;-76
2023/03/30 00:08:26;;;;;;;;;;;13.40;99.90;;;;;;5038201;28;19905;-76
2023/03/30 00:11:01;;;;;;;;;;;13.50;99.90;;;;;;5037964;28;19909;-75
2023/03/30 00:13:27;;;;;;;;;;;13.50;99.90;;;;;;5055801;28;20276;-75
2023/03/30 00:15:52;;;;;;;;;;;13.50;99.90;;;;;;5037941;28;19905;-75
2023/03/30 00:18:18;;;;;;;;;;;13.50;99.90;;;;;;5055906;28;19908;-75
2023/03/30 00:20:46;;;;;;;;;;;13.50;99.90;;;;;;5037906;28;19911;-76
2023/03/30 00:23:12;;;;;;;;;;;13.50;99.90;;;;;;5055674;28;19972;-76
2023/03/30 00:25:37;;;;;;;;;;;13.60;99.90;;;;;;5055675;28;19916;-76
2023/03/30 00:28:03;;;;;;;;;;;13.50;99.90;;;;;;5056278;28;19905;-76
2023/03/30 00:30:29;;;;;;;;;;;13.50;99.90;;;;;;5037553;28;20462;-76
2023/03/30 00:32:54;;;;;;;;;;;13.50;99.90;;;;;;5037661;28;20364;-76
2023/03/30 00:35:20;;;;;;;;;;;13.40;99.90;;;;;;5037516;28;19996;-76
2023/03/30 00:37:48;;;;;;;;;;;13.50;99.90;;;;;;5037256;28;19905;-75
2023/03/30 00:40:15;;;;;;;;;;;13.60;99.90;;;;;;5037451;28;19904;-76
2023/03/30 00:42:41;;;;;;;;;;;13.50;99.90;;;;;;5054834;28;19904;-75
2023/03/30 00:45:29;;;;;;;;;;;13.50;99.90;;;;;;5037174;28;19909;-76
2023/03/30 00:48:06;;;;;;;;;;;13.50;99.90;;;;;;5055096;28;19920;-76
2023/03/30 00:50:34;;;;;;;;;;;13.50;99.90;;;;;;5055043;28;19991;-75
2023/03/30 00:53:02;;;;;;;;;;;13.50;99.90;;;;;;5055091;28;19909;-76
2023/03/30 00:55:29;;;;;;;;;;;13.40;99.90;;;;;;5037081;28;20000;-76
2023/03/30 00:57:55;;;;;;;;;;;13.40;99.90;;;;;;5054928;28;19955;-76
2023/03/30 01:00:22;;;;;;;;;;;13.30;99.90;;;;;;5054772;28;19936;-76
2023/03/30 01:02:52;;;;;;;;;;;13.30;99.90;;;;;;5054934;28;20383;-76
2023/03/30 01:05:17;;;;;;;;;;;13.30;99.90;;;;;;5054952;28;19913;-76
2023/03/30 01:07:45;;;;;;;;;;;13.20;99.90;;;;;;5036829;28;20349;-76
2023/03/30 01:10:11;;;;;;;;;;;13.20;99.90;;;;;;5036767;28;19904;-75
2023/03/30 01:12:37;;;;;;;;;;;13.20;99.90;;;;;;5054679;28;19905;-76
2023/03/30 01:15:06;;;;;;;;;;;13.20;99.90;;;;;;5036790;28;19912;-76
2023/03/30 01:17:42;;;;;;;;;;;13.20;99.90;;;;;;5054493;28;20330;-76
2023/03/30 01:20:11;;;;;;;;;;;13.30;99.90;;;;;;5054624;28;19904;-76
2023/03/30 01:22:49;;;;;;;;;;;13.30;99.90;;;;;;5036667;28;19904;-75
2023/03/30 01:25:35;;;;;;;;;;;13.30;99.90;;;;;;5036622;28;19908;-75
2023/03/30 01:28:10;;;;;;;;;;;13.30;99.90;;;;;;5054335;28;19904;-75
2023/03/30 01:30:50;;;;;;;;;;;13.30;99.90;;;;;;5054338;28;19905;-76
2023/03/30 01:33:33;;;;;;;;;;;13.30;99.90;;;;;;5036409;28;19908;-75
2023/03/30 01:36:02;;;;;;;;;;;13.30;99.90;;;;;;5054214;28;19912;-76
2023/03/30 01:38:27;;;;;;;;;;;13.20;99.90;;;;;;5036286;28;19909;-76
2023/03/30 01:41:18;;;;;;;;;;;13.20;99.90;;;;;;5036273;28;19962;-76
2023/03/30 01:43:51;;;;;;;;;;;13.30;99.90;;;;;;5036358;28;19975;-76
2023/03/30 01:46:29;;;;;;;;;;;13.30;99.90;;;;;;5054030;28;20287;-75
2023/03/30 01:49:17;;;;;;;;;;;13.30;99.90;;;;;;5054011;28;19986;-75
2023/03/30 01:51:46;;;;;;;;;;;13.30;99.90;;;;;;5054224;28;19991;-77
2023/03/30 01:54:16;;;;;;;;;;;13.30;99.90;;;;;;5035611;28;20268;-77
2023/03/30 01:56:45;;;;;;;;;;;13.20;99.90;;;;;;5053751;28;19912;-75
2023/03/30 01:59:15;;;;;;;;;;;13.20;99.90;;;;;;5036027;28;19911;-75
2023/03/30 02:01:41;;;;;;;;;;;13.30;99.90;;;;;;5053793;28;19909;-75
2023/03/30 02:04:09;;;;;;;;;;;13.20;99.90;;;;;;5053598;28;20006;-75
2023/03/30 02:06:38;;;;;;;;;;;13.10;99.90;;;;;;5035814;28;19909;-75
2023/03/30 02:09:06;;;;;;;;;;;13.10;99.90;;;;;;5035831;28;19905;-75
2023/03/30 02:11:32;;;;;;;;;;;13.10;99.90;;;;;;5035972;28;19954;-75
2023/03/30 02:13:58;;;;;;;;;;;13.10;99.90;;;;;;5053585;28;19966;-76
2023/03/30 02:16:36;;;;;;;;;;;13.10;99.90;;;;;;5035698;28;19905;-75
2023/03/30 02:19:03;;;;;;;;;;;13.10;99.90;;;;;;5053666;28;19963;-76
2023/03/30 02:21:29;;;;;;;;;;;13.00;99.90;;;;;;5035647;28;20283;-76
2023/03/30 02:23:56;;;;;;;;;;;13.00;99.90;;;;;;5035659;28;20272;-75
2023/03/30 02:26:22;;;;;;;;;;;12.90;99.90;;;;;;5035573;28;20360;-75
2023/03/30 02:28:48;;;;;;;;;;;13.00;99.90;;;;;;5035555;28;20097;-77
2023/03/30 02:31:14;;;;;;;;;;;12.90;99.90;;;;;;5053416;28;19958;-75
2023/03/30 02:33:40;;;;;;;;;;;13.00;99.90;;;;;;5035683;28;20015;-76
2023/03/30 02:36:06;;;;;;;;;;;13.10;99.90;;;;;;5053997;28;19967;-76
2023/03/30 02:38:51;;;;;;;;;;;13.10;99.90;;;;;;5053427;28;19912;-76
2023/03/30 02:41:41;;;;;;;;;;;13.10;99.90;;;;;;5035494;28;20257;-76
2023/03/30 02:44:25;;;;;;;;;;;13.20;99.90;;;;;;5053486;28;19909;-76
2023/03/30 02:46:59;;;;;;;;;;;13.20;99.90;;;;;;5053219;28;20327;-76
2023/03/30 02:49:43;;;;;;;;;;;13.30;99.90;;;;;;5053865;28;19912;-76
2023/03/30 02:52:15;;;;;;;;;;;13.30;99.90;;;;;;5035440;28;19908;-75
2023/03/30 02:54:44;;;;;;;;;;;13.30;99.90;;;;;;5035395;28;19926;-75
2023/03/30 02:57:18;;;;;;;;;;;13.40;99.90;;;;;;5053171;28;19905;-75
2023/03/30 02:59:55;;;;;;;;;;;13.40;99.90;;;;;;5035523;28;20121;-75
2023/03/30 03:02:28;;;;;;;;;;;13.50;99.90;;;;;;5035430;28;19966;-76
2023/03/30 03:04:54;;;;;;;;;;;13.50;99.90;;;;;;5035188;28;19995;-76
2023/03/30 03:07:20;;;;;;;;;;;13.50;99.90;;;;;;5038478;28;20437;-75
2023/03/30 03:09:45;;;;;;;;;;;13.50;99.90;;;;;;5039253;28;19911;-77
2023/03/30 03:12:11;;;;;;;;;;;14.70;99.90;;;;;;5039618;28;20264;-76
2023/03/30 03:14:37;;;;;;;;;;;13.40;99.90;;;;;;5056955;28;19990;-75
2023/03/30 03:17:03;;;;;;;;;;;13.60;99.90;;;;;;5038978;28;20024;-76
2023/03/30 03:19:29;;;;;;;;;;;13.40;99.90;;;;;;5038958;28;19905;-75
2023/03/30 03:21:55;;;;;;;;;;;13.30;99.90;;;;;;5038953;28;19954;-76
2023/03/30 03:24:20;;;;;;;;;;;13.30;99.90;;;;;;5038774;28;19954;-75
2023/03/30 03:26:46;;;;;;;;;;;13.30;99.90;;;;;;5038773;28;19912;-76
2023/03/30 03:29:11;;;;;;;;;;;13.30;99.90;;;;;;5038855;28;19951;-76
2023/03/30 03:31:37;;;;;;;;;;;13.30;99.90;;;;;;5056672;28;19957;-77
2023/03/30 03:34:02;;;;;;;;;;;13.30;99.90;;;;;;5038603;28;19904;-76
2023/03/30 03:36:29;;;;;;;;;;;13.20;99.90;;;;;;5056387;28;19916;-76
2023/03/30 03:38:55;;;;;;;;;;;13.20;99.90;;;;;;5038581;28;19904;-76
2023/03/30 03:41:20;;;;;;;;;;;13.20;99.90;;;;;;5038607;28;19949;-75
2023/03/30 03:43:46;;;;;;;;;;;13.20;99.90;;;;;;5056363;28;19909;-76
2023/03/30 03:46:12;;;;;;;;;;;13.20;99.90;;;;;;5056399;28;19905;-75
2023/03/30 03:48:38;;;;;;;;;;;13.20;99.90;;;;;;5038463;28;19904;-75
2023/03/30 03:51:04;;;;;;;;;;;13.50;99.90;;;;;;5056173;28;19904;-75
2023/03/30 03:53:30;;;;;;;;;;;13.50;99.90;;;;;;5038366;28;20374;-75
2023/03/30 03:55:56;;;;;;;;;;;13.20;99.90;;;;;;5056201;28;19951;-75
2023/03/30 03:58:22;;;;;;;;;;;13.30;99.90;;;;;;5038250;28;19947;-75
2023/03/30 04:00:48;;;;;;;;;;;13.70;99.90;;;;;;5056126;28;20382;-76
2023/03/30 04:03:13;;;;;;;;;;;13.30;99.90;;;;;;5038211;28;19999;-76
2023/03/30 04:05:40;;;;;;;;;;;13.20;99.90;;;;;;5038084;28;19913;-76
2023/03/30 04:08:09;;;;;;;;;;;13.20;99.90;;;;;;5056185;28;19904;-76
2023/03/30 04:10:37;;;;;;;;;;;13.20;99.90;;;;;;5038055;28;19905;-76
2023/03/30 04:13:03;;;;;;;;;;;13.30;99.90;;;;;;5037985;28;19905;-76
2023/03/30 04:15:29;;;;;;;;;;;13.30;99.90;;;;;;5056481;28;19938;-76
2023/03/30 04:17:57;;;;;;;;;;;13.30;99.90;;;;;;5037246;28;19912;-76
2023/03/30 04:20:23;;;;;;;;;;;13.20;99.90;;;;;;5055795;28;19905;-76
2023/03/30 04:22:48;;;;;;;;;;;13.20;99.90;;;;;;5055740;28;20279;-76
2023/03/30 04:25:14;;;;;;;;;;;13.30;99.90;;;;;;5055855;28;19909;-76
2023/03/30 04:27:43;;;;;;;;;;;13.20;99.90;;;;;;5056121;28;20280;-76
2023/03/30 04:30:09;;;;;;;;;;;13.90;99.90;;;;;;5055801;28;20260;-76
2023/03/30 04:32:37;;;;;;;;;;;13.20;99.90;;;;;;5037937;28;19905;-76
2023/03/30 04:35:04;;;;;;;;;;;13.30;99.90;;;;;;5055459;28;19904;-76
2023/03/30 04:37:30;;;;;;;;;;;13.20;99.90;;;;;;5055491;28;19904;-76
2023/03/30 04:39:59;;;;;;;;;;;13.10;99.90;;;;;;5037833;28;20257;-76
2023/03/30 04:42:32;;;;;;;;;;;13.00;99.90;;;;;;5037584;28;19954;-76
2023/03/30 04:44:58;;;;;;;;;;;12.90;99.90;;;;;;5037499;28;19912;-76
2023/03/30 04:47:24;;;;;;;;;;;12.80;99.90;;;;;;5055270;28;20264;-76
2023/03/30 04:49:50;;;;;;;;;;;12.70;99.90;;;;;;5055310;28;19909;-76
2023/03/30 04:52:16;;;;;;;;;;;12.60;99.90;;;;;;5055139;28;19940;-76
2023/03/30 04:54:41;;;;;;;;;;;12.60;99.90;;;;;;5055092;28;20360;-75
2023/03/30 04:57:06;;;;;;;;;;;12.60;99.90;;;;;;5037683;28;19905;-76
2023/03/30 04:59:32;;;;;;;;;;;12.50;99.90;;;;;;5055173;28;20287;-75
2023/03/30 05:01:57;;;;;;;;;;;12.50;99.90;;;;;;5037249;28;19908;-75
2023/03/30 05:04:23;;;;;;;;;;;12.40;99.90;;;;;;5054848;28;19963;-76
2023/03/30 05:06:48;;;;;;;;;;;12.40;99.90;;;;;;5055546;28;19972;-76
2023/03/30 05:09:14;;;;;;;;;;;12.30;99.90;;;;;;5055011;28;19912;-76
2023/03/30 05:11:40;;;;;;;;;;;12.30;99.90;;;;;;5054932;28;20015;-75
2023/03/30 05:14:05;;;;;;;;;;;12.40;99.90;;;;;;5037134;28;19951;-75
2023/03/30 05:16:31;;;;;;;;;;;12.20;99.90;;;;;;5054665;28;19912;-76
2023/03/30 05:18:57;;;;;;;;;;;12.10;99.90;;;;;;5054988;28;19950;-77
2023/03/30 05:21:22;;;;;;;;;;;12.30;99.90;;;;;;5055770;28;19905;-77
2023/03/30 05:23:48;;;;;;;;;;;12.10;99.90;;;;;;5037350;28;20020;-78
2023/03/30 05:26:13;;;;;;;;;;;12.00;99.90;;;;;;5058023;28;19905;-78
2023/03/30 05:28:39;;;;;;;;;;;12.00;99.90;;;;;;5058580;28;19940;-78
2023/03/30 05:31:04;;;;;;;;;;;11.90;99.90;;;;;;5037109;28;19905;-76
2023/03/30 05:33:30;;;;;;;;;;;12.00;99.90;;;;;;5037183;28;19912;-77
2023/03/30 05:35:55;;;;;;;;;;;12.00;99.90;;;;;;5055006;28;19908;-77
2023/03/30 05:38:21;;;;;;;;;;;12.10;99.90;;;;;;5037290;28;20003;-77
2023/03/30 05:40:50;;;;;;;;;;;11.90;99.90;;;;;;5036409;28;19911;-76
2023/03/30 05:43:15;;;;;;;;;;;11.90;99.90;;;;;;5039024;28;19943;-76
2023/03/30 05:45:42;;;;;;;;;;;11.90;99.90;;;;;;5054750;28;19955;-77
2023/03/30 05:48:08;;;;;;;;;;;11.80;99.90;;;;;;5036948;28;20000;-77
2023/03/30 05:50:34;;;;;;;;;;;11.90;99.90;;;;;;5055349;28;19940;-77
2023/03/30 05:53:00;;;;;;;;;;;11.80;99.90;;;;;;5055222;28;19905;-77
2023/03/30 05:55:26;;;;;;;;;;;11.80;99.90;;;;;;5036996;28;19956;-77
2023/03/30 05:57:52;;;;;;;;;;;11.90;99.90;;;;;;5036731;28;19911;-77
2023/03/30 06:00:20;;;;;;;;;;;11.90;99.90;;;;;;5054817;28;19904;-77
2023/03/30 06:02:45;;;;;;;;;;;11.80;99.90;;;;;;5036700;28;20000;-77
2023/03/30 06:05:11;;;;;;;;;;;11.90;99.90;;;;;;5035962;28;20371;-77
2023/03/30 06:07:37;;;;;;;;;;;11.90;99.90;;;;;;5036108;28;20376;-77
2023/03/30 06:10:04;;;;;;;;;;;11.90;99.90;;;;;;5036315;28;19905;-77
2023/03/30 06:12:31;;;;;;;;;;;11.90;99.90;;;;;;5037659;28;19915;-77
2023/03/30 06:14:56;;;;;;;;;;;11.80;99.90;;;;;;5055008;28;20019;-77
2023/03/30 06:17:22;;;;;;;;;;;11.90;99.90;;;;;;5036782;28;19956;-77
2023/03/30 06:19:47;;;;;;;;;;;11.90;99.90;;;;;;5054742;28;20403;-77
2023/03/30 06:22:13;;;;;;;;;;;11.90;99.90;;;;;;5054805;28;20280;-77
2023/03/30 06:24:38;;;;;;;;;;;11.90;99.90;;;;;;5036651;28;20543;-77
2023/03/30 06:27:04;;;;;;;;;;;12.00;99.90;;;;;;5054342;28;19905;-77
2023/03/30 06:29:30;;;;;;;;;;;12.10;99.90;;;;;;5037016;28;20383;-77
2023/03/30 06:31:55;;;;;;;;;;;12.10;99.90;;;;;;5035895;28;19905;-77
2023/03/30 06:34:21;;;;;;;;;;;12.90;99.90;;;;;;5036064;28;19905;-76
2023/03/30 06:36:47;;;;;;;;;;;12.10;99.90;;;;;;5036373;28;19983;-76
2023/03/30 06:39:12;;;;;;;;;;;12.50;99.90;;;;;;5053927;28;19912;-76
2023/03/30 06:41:38;;;;;;;;;;;12.00;99.90;;;;;;5056161;28;20421;-76
2023/03/30 06:44:03;;;;;;;;;;;12.10;99.90;;;;;;5040148;28;19936;-76
2023/03/30 06:46:29;;;;;;;;;;;12.10;99.90;;;;;;5058880;28;19912;-77
2023/03/30 06:48:54;;;;;;;;;;;12.10;99.90;;;;;;5039998;28;20364;-76
2023/03/30 06:51:20;;;;;;;;;;;12.10;99.90;;;;;;5040074;28;20368;-76
2023/03/30 06:53:45;;;;;;;;;;;12.10;99.90;;;;;;5039905;28;20434;-76
2023/03/30 06:56:11;;;;;;;;;;;12.10;99.90;;;;;;5057984;28;19912;-77
2023/03/30 06:58:37;;;;;;;;;;;12.90;99.90;;;;;;5057965;28;19935;-78
2023/03/30 07:01:13;;;;;;;;;;;12.00;99.90;;;;;;5039645;28;20387;-76
2023/03/30 07:03:40;;;;;;;;;;;12.00;99.90;;;;;;5040027;28;20004;-77
2023/03/30 07:06:06;;;;;;;;;;;12.10;99.90;;;;;;5040059;28;19913;-77
2023/03/30 07:08:32;;;;;;;;;;;12.00;99.90;;;;;;5040453;28;19905;-77
2023/03/30 07:10:58;;;;;;;;;;;12.00;99.90;;;;;;5040410;28;19909;-78
2023/03/30 07:13:24;;;;;;;;;;;12.00;99.90;;;;;;5058215;28;19927;-77
2023/03/30 07:15:51;;;;;;;;;;;12.00;99.90;;;;;;5039486;28;20054;-76
2023/03/30 07:18:17;;;;;;;;;;;13.00;99.90;;;;;;5039529;28;19909;-77
2023/03/30 07:20:48;;;;;;;;;;;12.00;99.90;;;;;;5039559;28;20005;-77
2023/03/30 07:23:13;;;;;;;;;;;11.80;99.90;;;;;;5039436;28;19904;-77
2023/03/30 07:25:40;;;;;;;;;;;12.10;99.90;;;;;;5057878;28;19911;-77
2023/03/30 07:28:06;;;;;;;;;;;12.20;99.90;;;;;;5058209;28;19912;-77
2023/03/30 07:30:32;;;;;;;;;;;12.40;99.90;;;;;;5040302;28;19905;-77
2023/03/30 07:32:57;;;;;;;;;;;12.10;99.90;;;;;;5039250;28;19904;-76
2023/03/30 07:35:23;;;;;;;;;;;12.20;99.90;;;;;;5057294;28;19911;-76
2023/03/30 07:37:48;;;;;;;;;;;12.30;99.90;;;;;;5038858;28;19911;-76
2023/03/30 07:40:14;;;;;;;;;;;12.40;99.90;;;;;;5038856;28;19905;-75
2023/03/30 07:42:40;;;;;;;;;;;12.50;99.90;;;;;;5038746;28;19911;-77
2023/03/30 07:45:06;;;;;;;;;;;12.60;99.90;;;;;;5056682;28;19908;-77
2023/03/30 07:47:31;;;;;;;;;;;12.70;99.90;;;;;;5056466;28;19904;-76
2023/03/30 07:49:57;;;;;;;;;;;12.90;99.90;;;;;;5038723;28;19944;-76
2023/03/30 07:52:22;;;;;;;;;;;13.00;99.90;;;;;;5055342;28;19905;-76
2023/03/30 07:54:47;;;;;;;;;;;13.10;99.90;;;;;;5038642;28;19908;-77
2023/03/30 07:57:13;;;;;;;;;;;13.20;99.90;;;;;;5038431;28;20310;-77
2023/03/30 07:59:38;;;;;;;;;;;13.70;99.90;;;;;;5038816;28;19905;-78
2023/03/30 08:02:04;;;;;;;;;;;13.50;99.90;;;;;;5058171;28;19912;-80
2023/03/30 08:04:30;;;;;;;;;;;13.50;99.90;;;;;;5039650;28;19912;-74
2023/03/30 08:06:55;;;;;;;;;;;13.40;99.90;;;;;;5057293;28;19904;-78
2023/03/30 08:09:21;;;;;;;;;;;13.40;99.90;;;;;;5039285;28;20000;-78
2023/03/30 08:11:46;;;;;;;;;;;13.20;99.90;;;;;;5039996;28;19927;-78
2023/03/30 08:14:12;;;;;;;;;;;13.20;99.90;;;;;;5038773;28;19911;-77
2023/03/30 08:16:38;;;;;;;;;;;13.50;99.90;;;;;;5039446;28;20360;-77
2023/03/30 08:19:03;;;;;;;;;;;14.00;99.90;;;;;;5056819;28;20355;-79
2023/03/30 08:21:29;;;;;;;;;;;13.40;99.90;;;;;;5057440;28;19944;-77
2023/03/30 08:23:58;;;;;;;;;;;13.40;99.90;;;;;;5039083;28;19912;-77
2023/03/30 08:26:24;;;;;;;;;;;13.40;99.90;;;;;;5057208;28;20415;-78
2023/03/30 08:28:50;;;;;;;;;;;13.40;99.90;;;;;;5039320;28;19911;-77
2023/03/30 08:31:17;;;;;;;;;;;13.30;99.90;;;;;;5057274;28;19995;-78
2023/03/30 08:33:46;;;;;;;;;;;13.30;99.90;;;;;;5039837;28;19909;-78
2023/03/30 08:36:11;;;;;;;;;;;13.30;99.90;;;;;;5057324;28;19951;-78
2023/03/30 08:38:38;;;;;;;;;;;13.40;99.90;;;;;;5057710;28;19904;-78
2023/03/30 08:41:18;;;;;;;;;;;13.40;99.90;;;;;;5039404;28;19909;-78
2023/03/30 08:44:04;;;;;;;;;;;13.40;99.90;;;;;;5039269;28;19908;-78
2023/03/30 08:46:30;;;;;;;;;;;13.40;99.90;;;;;;5046494;28;20429;-78
2023/03/30 08:48:58;;;;;;;;;;;13.50;99.90;;;;;;5039196;28;19905;-78
2023/03/30 08:51:26;;;;;;;;;;;13.70;99.90;;;;;;5039171;28;19905;-78
2023/03/30 08:54:12;;;;;;;;;;;13.80;99.90;;;;;;5056997;28;19909;-77
2023/03/30 08:56:39;;;;;;;;;;;13.90;99.90;;;;;;5055638;28;19905;-77
2023/03/30 08:59:20;;;;;;;;;;;13.90;99.90;;;;;;5056139;28;20275;-77
2023/03/30 09:01:50;;;;;;;;;;;13.80;99.90;;;;;;5038789;28;20405;-78
2023/03/30 09:04:25;;;;;;;;;;;13.80;99.90;;;;;;5038753;28;21562;-78
2023/03/30 09:06:55;;;;;;;;;;;13.70;99.90;;;;;;5038813;28;19913;-78
2023/03/30 09:09:22;;;;;;;;;;;13.60;99.90;;;;;;5038855;28;19905;-78
2023/03/30 09:11:49;;;;;;;;;;;13.50;99.90;;;;;;5056938;28;19912;-78
2023/03/30 09:14:20;;;;;;;;;;;13.70;99.90;;;;;;5039137;28;19913;-78
2023/03/30 09:16:51;;;;;;;;;;;13.70;99.90;;;;;;5056474;28;19904;-78
2023/03/30 09:19:26;;;;;;;;;;;13.90;99.90;;;;;;5038625;28;20386;-79
2023/03/30 09:21:52;;;;;;;;;;;13.90;99.90;;;;;;5037746;28;20248;-77
2023/03/30 09:24:23;;;;;;;;;;;14.00;99.90;;;;;;5055134;28;19919;-77
2023/03/30 09:26:48;;;;;;;;;;;14.10;99.90;;;;;;5037318;28;19912;-77
2023/03/30 09:29:20;;;;;;;;;;;14.00;99.90;;;;;;5055029;28;19939;-77
2023/03/30 09:32:04;;;;;;;;;;;14.00;99.90;;;;;;5037328;28;19905;-77
2023/03/30 09:34:30;;;;;;;;;;;14.00;99.90;;;;;;5055600;28;20391;-77
2023/03/30 09:36:59;;;;;;;;;;;14.00;99.90;;;;;;5054992;28;19944;-77
2023/03/30 09:39:28;;;;;;;;;;;14.10;99.90;;;;;;5037009;28;20323;-77
2023/03/30 09:42:00;;;;;;;;;;;14.20;99.90;;;;;;5037213;28;19944;-78
2023/03/30 09:44:28;;;;;;;;;;;14.20;99.90;;;;;;5036642;28;19916;-77
2023/03/30 09:46:57;;;;;;;;;;;14.00;99.90;;;;;;5054776;28;19904;-77
2023/03/30 09:49:25;;;;;;;;;;;13.90;99.90;;;;;;5054670;28;20011;-76
2023/03/30 09:51:52;;;;;;;;;;;13.80;99.90;;;;;;5036857;28;20363;-76
2023/03/30 09:54:18;;;;;;;;;;;13.80;99.90;;;;;;5037920;28;20352;-79
2023/03/30 09:56:46;;;;;;;;;;;14.00;99.90;;;;;;5056057;28;19905;-78
2023/03/30 09:59:18;;;;;;;;;;;14.20;99.90;;;;;;5038307;28;19904;-79
2023/03/30 10:01:43;;;;;;;;;;;14.50;99.90;;;;;;5055292;28;19905;-77
2023/03/30 10:04:10;;;;;;;;;;;14.70;99.90;;;;;;5036413;28;20050;-77
2023/03/30 10:06:37;;;;;;;;;;;15.00;99.90;;;;;;5036402;28;19908;-77
2023/03/30 10:09:05;;;;;;;;;;;15.00;99.90;;;;;;5036409;28;19911;-77
2023/03/30 10:11:39;;;;;;;;;;;14.80;99.90;;;;;;5036339;28;19989;-77
2023/03/30 10:14:06;;;;;;;;;;;14.60;99.90;;;;;;5054134;28;19905;-77
2023/03/30 10:16:32;;;;;;;;;;;14.50;99.90;;;;;;5035823;28;19954;-77
2023/03/30 10:19:02;;;;;;;;;;;14.40;99.90;;;;;;5037124;28;19912;-77
2023/03/30 10:21:35;;;;;;;;;;;14.40;99.90;;;;;;5036255;28;20434;-77
2023/03/30 10:24:03;;;;;;;;;;;14.60;99.90;;;;;;5053999;28;19909;-77
2023/03/30 10:26:29;;;;;;;;;;;14.60;99.90;;;;;;5053998;28;19995;-77
2023/03/30 10:29:06;;;;;;;;;;;14.60;99.90;;;;;;5054166;28;19905;-77
2023/03/30 10:31:33;;;;;;;;;;;14.40;99.90;;;;;;5053944;28;19912;-77
2023/03/30 10:34:00;;;;;;;;;;;14.60;99.90;;;;;;5036107;28;19966;-76
2023/03/30 10:36:31;;;;;;;;;;;14.70;99.90;;;;;;5053873;28;19912;-77
2023/03/30 10:39:03;;;;;;;;;;;14.70;99.90;;;;;;5053881;28;19920;-77
2023/03/30 10:41:29;;;;;;;;;;;14.60;99.90;;;;;;5054047;28;19916;-77
2023/03/30 10:43:55;;;;;;;;;;;14.80;99.90;;;;;;5035807;28;19932;-77
2023/03/30 10:46:22;;;;;;;;;;;15.00;99.90;;;;;;5035586;28;19905;-77
2023/03/30 10:49:07;;;;;;;;;;;15.10;99.90;;;;;;5036479;28;20006;-77
2023/03/30 10:51:52;;;;;;;;;;;15.20;99.90;;;;;;5035822;28;20371;-76
2023/03/30 10:54:18;;;;;;;;;;;15.10;99.90;;;;;;5055277;28;20398;-78
2023/03/30 10:56:50;;;;;;;;;;;15.10;99.90;;;;;;5036321;28;19904;-78
2023/03/30 10:59:21;;;;;;;;;;;15.00;99.90;;;;;;5054625;28;20030;-77
2023/03/30 11:01:55;;;;;;;;;;;15.10;99.90;;;;;;5054045;28;19905;-77
2023/03/30 11:04:24;;;;;;;;;;;15.20;99.90;;;;;;5035788;28;19981;-77
2023/03/30 11:06:52;;;;;;;;;;;15.20;99.90;;;;;;5053885;28;19954;-78
2023/03/30 11:09:21;;;;;;;;;;;15.00;99.90;;;;;;5053524;28;19904;-77
2023/03/30 11:11:48;;;;;;;;;;;14.90;99.90;;;;;;5054738;28;19905;-78
2023/03/30 11:14:37;;;;;;;;;;;14.90;99.90;;;;;;5036949;28;20355;-77
2023/03/30 11:17:09;;;;;;;;;;;15.00;99.90;;;;;;5046439;28;20391;-78
2023/03/30 11:19:46;;;;;;;;;;;15.10;99.90;;;;;;5036762;28;20000;-78
2023/03/30 11:22:30;;;;;;;;;;;15.10;99.90;;;;;;5054687;28;19911;-78
2023/03/30 11:24:56;;;;;;;;;;;15.10;99.90;;;;;;5054846;28;20378;-78
2023/03/30 11:27:38;;;;;;;;;;;15.00;99.90;;;;;;5038725;28;19905;-78
2023/03/30 11:30:13;;;;;;;;;;;15.00;99.90;;;;;;5058607;28;19951;-78
2023/03/30 11:33:01;;;;;;;;;;;15.10;99.90;;;;;;5058242;28;20368;-77
2023/03/30 11:35:35;;;;;;;;;;;15.00;99.90;;;;;;5041169;28;19911;-78
2023/03/30 11:38:13;;;;;;;;;;;15.00;99.90;;;;;;5057944;28;19971;-78
2023/03/30 11:40:43;;;;;;;;;;;15.00;99.90;;;;;;5058489;28;19908;-78
2023/03/30 11:43:12;;;;;;;;;;;15.00;99.90;;;;;;5040330;28;19908;-78
2023/03/30 11:45:44;;;;;;;;;;;14.90;99.90;;;;;;5057889;28;19966;-78
2023/03/30 11:48:12;;;;;;;;;;;14.90;99.90;;;;;;5040242;28;19940;-78
2023/03/30 11:50:55;;;;;;;;;;;15.00;99.90;;;;;;5057921;28;19905;-78
2023/03/30 11:53:21;;;;;;;;;;;15.20;99.90;;;;;;5040064;28;20425;-78
2023/03/30 11:56:00;;;;;;;;;;;15.10;99.90;;;;;;5058320;28;19905;-78
2023/03/30 11:58:30;;;;;;;;;;;14.90;99.90;;;;;;5057818;28;19905;-78
2023/03/30 12:00:59;;;;;;;;;;;15.00;99.90;;;;;;5058661;28;19912;-78
2023/03/30 12:03:34;;;;;;;;;;;15.00;99.90;;;;;;5040127;28;20007;-78
2023/03/30 12:06:06;;;;;;;;;;;15.20;99.90;;;;;;5039416;28;20317;-78
2023/03/30 12:08:38;;;;;;;;;;;15.30;99.90;;;;;;5057668;28;19911;-78
2023/03/30 12:11:10;;;;;;;;;;;15.30;99.90;;;;;;5057552;28;19908;-78
2023/03/30 12:13:36;;;;;;;;;;;15.20;99.90;;;;;;5039733;28;19913;-78
2023/03/30 12:16:01;;;;;;;;;;;15.10;99.90;;;;;;5057582;28;19972;-78
2023/03/30 12:18:27;;;;;;;;;;;14.90;99.90;;;;;;5039499;28;19974;-78
2023/03/30 12:20:56;;;;;;;;;;;14.90;99.90;;;;;;5039727;28;19905;-78
2023/03/30 12:23:29;;;;;;;;;;;15.20;99.90;;;;;;5057556;28;19912;-78
2023/03/30 12:25:55;;;;;;;;;;;15.40;99.90;;;;;;5039874;28;19908;-78
2023/03/30 12:28:23;;;;;;;;;;;15.50;99.90;;;;;;5057452;28;19905;-78
2023/03/30 12:30:51;;;;;;;;;;;15.70;99.90;;;;;;5057573;28;20408;-77
2023/03/30 12:33:19;;;;;;;;;;;15.80;99.90;;;;;;5039197;28;19908;-78
2023/03/30 12:35:50;;;;;;;;;;;15.90;99.90;;;;;;5056480;28;19905;-77
2023/03/30 12:38:18;;;;;;;;;;;16.20;99.90;;;;;;5038113;28;19949;-77
2023/03/30 12:40:47;;;;;;;;;;;16.10;99.90;;;;;;5056396;28;19909;-77
2023/03/30 12:43:32;;;;;;;;;;;16.10;99.90;;;;;;5056222;28;19911;-76
2023/03/30 12:46:26;;;;;;;;;;;15.90;99.90;;;;;;5037670;28;19920;-76
2023/03/30 12:48:52;;;;;;;;;;;15.60;99.90;;;;;;5037994;28;20391;-76
2023/03/30 12:51:34;;;;;;;;;;;15.70;99.90;;;;;;5038326;28;19904;-77
2023/03/30 12:54:00;;;;;;;;;;;15.70;99.90;;;;;;5055756;28;19905;-77
2023/03/30 12:56:44;;;;;;;;;;;15.50;99.90;;;;;;5055614;28;19904;-77
2023/03/30 12:59:34;;;;;;;;;;;15.20;99.90;;;;;;5037772;28;19999;-77
2023/03/30 13:02:18;;;;;;;;;;;14.90;99.90;;;;;;5037823;28;19954;-77
2023/03/30 13:04:47;;;;;;;;;;;14.70;99.90;;;;;;5055199;28;20388;-77
2023/03/30 13:07:16;;;;;;;;;;;14.60;99.90;;;;;;5037530;28;19958;-78
2023/03/30 13:09:54;;;;;;;;;;;14.40;99.90;;;;;;5037641;28;20019;-77
2023/03/30 13:12:26;;;;;;;;;;;14.20;99.90;;;;;;5057472;28;19912;-76
2023/03/30 13:15:02;;;;;;;;;;;14.20;99.90;;;;;;5036956;28;19912;-75
2023/03/30 13:17:49;;;;;;;;;;;14.40;99.90;;;;;;5036687;28;20364;-76
2023/03/30 13:20:16;;;;;;;;;;;14.30;99.90;;;;;;5036977;28;20315;-76
2023/03/30 13:22:59;;;;;;;;;;;14.30;99.90;;;;;;5054758;28;19905;-78
2023/03/30 13:25:37;;;;;;;;;;;14.60;99.90;;;;;;5037148;28;20284;-77
2023/03/30 13:28:22;;;;;;;;;;;14.80;99.90;;;;;;5036977;28;20375;-77
2023/03/30 13:30:48;;;;;;;;;;;15.40;99.90;;;;;;5054256;28;19954;-76
2023/03/30 13:33:17;;;;;;;;;;;16.00;99.90;;;;;;5036333;28;20352;-76
2023/03/30 13:35:51;;;;;;;;;;;16.40;99.90;;;;;;5036313;28;19931;-76
2023/03/30 13:38:23;;;;;;;;;;;14.90;99.90;;;;;;5036339;28;19909;-76
2023/03/30 13:40:54;;;;;;;;;;;16.70;99.90;;;;;;5054192;28;19909;-76
2023/03/30 13:43:32;;;;;;;;;;;16.70;99.90;;;;;;5054126;28;19905;-75
2023/03/30 13:46:00;;;;;;;;;;;16.90;99.90;;;;;;5036184;28;19915;-76
2023/03/30 13:48:44;;;;;;;;;;;17.20;99.90;;;;;;5054102;28;19928;-75
2023/03/30 13:51:15;;;;;;;;;;;17.10;99.90;;;;;;5035325;28;19905;-75
2023/03/30 13:53:45;;;;;;;;;;;17.00;99.90;;;;;;5036039;28;19905;-74
2023/03/30 13:56:10;;;;;;;;;;;17.00;99.90;;;;;;5036123;28;19905;-75
2023/03/30 13:58:36;;;;;;;;;;;16.90;99.90;;;;;;5054384;28;19950;-75
2023/03/30 14:01:04;;;;;;;;;;;17.00;99.90;;;;;;5053875;28;19905;-76
2023/03/30 14:03:32;;;;;;;;;;;16.80;99.90;;;;;;5035805;28;19912;-76
2023/03/30 14:06:13;;;;;;;;;;;16.70;99.90;;;;;;5035984;28;19912;-75
2023/03/30 14:08:40;;;;;;;;;;;16.90;99.90;;;;;;5036197;28;19915;-76
2023/03/30 14:11:32;;;;;;;;;;;17.20;99.90;;;;;;5053782;28;19905;-75
2023/03/30 14:13:57;;;;;;;;;;;17.50;99.90;;;;;;5032639;28;19904;-76
2023/03/30 14:16:24;;;;;;;;;;;17.70;99.90;;;;;;5053932;28;19911;-76
2023/03/30 14:18:50;;;;;;;;;;;17.30;99.90;;;;;;5035881;28;19908;-76
2023/03/30 14:21:18;;;;;;;;;;;17.20;99.90;;;;;;5053829;28;20335;-77
2023/03/30 14:23:51;;;;;;;;;;;17.10;99.90;;;;;;5035783;28;20339;-74
2023/03/30 14:26:25;;;;;;;;;;;17.00;99.90;;;;;;5035628;28;20340;-76
2023/03/30 14:29:17;;;;;;;;;;;17.20;99.90;;;;;;5035678;28;20345;-75